Time;durP1;ratioP1;P1;durP2;ratioP2;P2;SDS_P1;SDS_P2;PMS_P1;PMS_P2;Temp;Humidity;BMP_temperature;BMP_pressure;BME280_temperature;BME280_humidity;BME280_pressure;Samples;Min_cycle;Max_cycle;Signal;HPM_P1;HPM_P2
2023/01/18 00:01:02;;;;;;;15.35;5.00;;;2.30;79.40;;;;;;5096075;28;20500;-75
2023/01/18 00:03:32;;;;;;;13.65;6.05;;;2.40;79.40;;;;;;5078652;28;20488;-75
2023/01/18 00:06:00;;;;;;;12.20;5.45;;;2.30;79.20;;;;;;5062872;28;20055;-75
2023/01/18 00:08:27;;;;;;;11.68;5.32;;;2.30;79.50;;;;;;5078713;28;20080;-75
2023/01/18 00:10:53;;;;;;;14.45;5.80;;;2.20;79.70;;;;;;5078294;28;20051;-75
2023/01/18 00:13:18;;;;;;;11.65;4.72;;;2.30;79.80;;;;;;5061475;28;20115;-75
2023/01/18 00:15:44;;;;;;;11.68;5.18;;;2.30;79.60;;;;;;5044867;28;20033;-75
2023/01/18 00:18:10;;;;;;;13.38;5.25;;;2.30;79.30;;;;;;5061606;28;20036;-75
2023/01/18 00:20:35;;;;;;;10.50;4.97;;;2.30;79.50;;;;;;5078114;28;20048;-75
2023/01/18 00:23:01;;;;;;;9.73;4.95;;;2.30;79.40;;;;;;5078300;28;20470;-75
2023/01/18 00:25:28;;;;;;;10.13;4.65;;;2.30;79.20;;;;;;5077869;28;20063;-75
2023/01/18 00:27:54;;;;;;;10.60;5.22;;;2.30;79.60;;;;;;5077783;28;20024;-75
2023/01/18 00:30:23;;;;;;;14.77;5.47;;;2.30;79.60;;;;;;5077784;28;20094;-75
2023/01/18 00:32:52;;;;;;;9.02;4.43;;;2.30;79.60;;;;;;5077708;28;20117;-75
2023/01/18 00:35:20;;;;;;;8.52;4.70;;;2.30;79.80;;;;;;5077724;28;20016;-75
2023/01/18 00:37:47;;;;;;;12.77;5.40;;;2.40;79.70;;;;;;5078179;28;20031;-75
2023/01/18 00:40:13;;;;;;;11.27;4.85;;;2.40;79.60;;;;;;5077713;28;20028;-75
2023/01/18 00:45:23;;;;;;;9.45;4.93;;;2.30;79.40;;;;;;5066383;28;20081;-75
2023/01/18 00:47:49;;;;;;;9.75;4.88;;;2.30;79.40;;;;;;5077658;28;20037;-75
2023/01/18 00:50:15;;;;;;;12.15;5.13;;;2.30;79.50;;;;;;5095161;28;20021;-75
2023/01/18 00:52:45;;;;;;;9.00;4.53;;;2.30;79.80;;;;;;5095035;28;20058;-75
2023/01/18 00:55:11;;;;;;;14.68;5.00;;;2.30;79.50;;;;;;5095032;28;20025;-75
2023/01/18 00:57:37;;;;;;;10.07;5.05;;;2.20;79.00;;;;;;5077295;28;20080;-75
2023/01/18 01:00:04;;;;;;;11.75;5.15;;;2.10;78.90;;;;;;5077287;28;20036;-75
2023/01/18 01:02:30;;;;;;;10.35;4.60;;;2.10;79.20;;;;;;5077273;28;20067;-75
2023/01/18 01:07:40;;;;;;;12.77;6.07;;;2.10;79.70;;;;;;5094836;28;20044;-75
2023/01/18 01:10:07;;;;;;;11.07;5.50;;;2.10;80.00;;;;;;5060389;28;20028;-75
2023/01/18 01:26:15;;;;;;;9.43;4.32;;;2.00;79.90;;;;;;5079569;28;20109;-75
2023/01/18 01:28:44;;;;;;;10.73;4.97;;;2.00;80.20;;;;;;5060245;28;20025;-75
2023/01/18 01:31:12;;;;;;;11.38;5.30;;;1.90;80.30;;;;;;5076566;28;20086;-75
2023/01/18 01:33:39;;;;;;;9.77;5.15;;;1.90;80.30;;;;;;5094267;28;20052;-75
2023/01/18 01:36:07;;;;;;;10.40;5.00;;;1.90;80.40;;;;;;5059818;28;20020;-75
2023/01/18 01:38:34;;;;;;;9.88;5.78;;;1.90;80.40;;;;;;5094178;28;20029;-75
2023/01/18 01:41:03;;;;;;;10.85;5.50;;;1.90;80.40;;;;;;5094267;28;20088;-75
2023/01/18 01:43:48;;;;;;;7.95;4.90;;;1.90;80.60;;;;;;5076386;28;20100;-75
2023/01/18 01:46:29;;;;;;;13.05;5.07;;;1.90;80.70;;;;;;5094064;28;20029;-75
2023/01/18 01:49:01;;;;;;;12.70;5.53;;;1.90;80.50;;;;;;5093983;28;20020;-75
2023/01/18 01:51:27;;;;;;;10.50;5.18;;;1.90;80.60;;;;;;5076249;28;20043;-75
2023/01/18 01:53:58;;;;;;;8.55;4.72;;;1.90;80.70;;;;;;5076177;28;20056;-75
2023/01/18 01:56:24;;;;;;;10.57;4.82;;;1.90;80.60;;;;;;5093852;28;20025;-75
2023/01/18 01:58:55;;;;;;;11.40;5.82;;;1.90;80.60;;;;;;5076240;28;20146;-75
2023/01/18 02:01:21;;;;;;;12.45;5.65;;;1.80;80.60;;;;;;5076164;28;20021;-75
2023/01/18 02:09:39;;;;;;;11.98;5.65;;;1.70;80.90;;;;;;5059156;28;20028;-74
2023/01/18 02:12:05;;;;;;;13.02;5.55;;;1.80;81.00;;;;;;5075861;28;20021;-74
2023/01/18 02:14:31;;;;;;;15.48;5.30;;;1.70;81.00;;;;;;5075973;28;20037;-75
2023/01/18 02:17:06;;;;;;;12.00;5.75;;;1.80;81.10;;;;;;5059188;28;20084;-75
2023/01/18 02:20:00;;;;;;;12.10;4.85;;;1.70;81.20;;;;;;5075760;28;20033;-75
2023/01/18 02:22:46;;;;;;;13.80;5.15;;;1.80;81.30;;;;;;5075746;28;20078;-75
2023/01/18 02:25:43;;;;;;;11.00;5.50;;;1.80;81.20;;;;;;5093324;28;20045;-75
2023/01/18 02:28:13;;;;;;;11.35;5.40;;;1.70;81.10;;;;;;5093075;28;20041;-75
2023/01/18 02:30:47;;;;;;;10.40;5.25;;;1.70;81.20;;;;;;5093589;28;20028;-75
2023/01/18 02:33:33;;;;;;;10.48;5.05;;;1.70;81.40;;;;;;5093303;28;20094;-75
2023/01/18 02:36:00;;;;;;;10.13;4.85;;;1.70;81.40;;;;;;5075618;28;20013;-75
2023/01/18 02:38:49;;;;;;;13.65;5.88;;;1.70;81.40;;;;;;5075807;28;20485;-75
2023/01/18 02:47:09;;;;;;;12.50;5.40;;;1.70;81.70;;;;;;5093328;28;20070;-75
2023/01/18 02:49:35;;;;;;;11.80;6.00;;;1.60;81.70;;;;;;5058832;28;20032;-75
2023/01/18 02:52:02;;;;;;;11.55;5.97;;;1.60;81.80;;;;;;5058780;28;20029;-75
2023/01/18 02:54:31;;;;;;;10.43;5.32;;;1.60;81.90;;;;;;5093181;28;20072;-75
2023/01/18 02:57:00;;;;;;;9.77;4.88;;;1.60;82.00;;;;;;5093117;28;20013;-75
2023/01/18 02:59:35;;;;;;;10.85;5.50;;;1.70;82.00;;;;;;5075325;28;20024;-75
2023/01/18 03:02:08;;;;;;;14.50;5.55;;;1.70;82.10;;;;;;5093120;28;20048;-75
2023/01/18 03:04:38;;;;;;;11.80;5.20;;;1.60;82.00;;;;;;5075429;28;20084;-76
2023/01/18 03:07:20;;;;;;;12.77;5.78;;;1.60;82.10;;;;;;5075437;28;20568;-76
2023/01/18 03:09:46;;;;;;;9.90;5.03;;;1.60;82.10;;;;;;5092997;28;20032;-75
2023/01/18 03:12:27;;;;;;;9.48;4.90;;;1.60;82.10;;;;;;5058572;28;20029;-75
2023/01/18 03:15:07;;;;;;;12.73;5.70;;;1.60;82.10;;;;;;5075470;28;20028;-75
2023/01/18 03:17:45;;;;;;;12.93;4.88;;;1.60;82.20;;;;;;5092989;28;20020;-75
2023/01/18 03:20:14;;;;;;;9.85;4.93;;;1.60;82.30;;;;;;5075245;28;20027;-75
2023/01/18 03:25:36;;;;;;;13.02;5.05;;;1.60;82.50;;;;;;5092770;28;20078;-75
2023/01/18 03:33:43;;;;;;;10.02;4.90;;;1.20;82.10;;;;;;5093061;28;20032;-75
2023/01/18 03:36:23;;;;;;;11.20;5.40;;;1.00;82.10;;;;;;5075102;28;20055;-75
2023/01/18 03:38:57;;;;;;;12.65;5.28;;;0.90;82.30;;;;;;5077725;28;20021;-75
2023/01/18 03:41:26;;;;;;;12.13;5.28;;;1.00;82.90;;;;;;5078751;28;20024;-75
2023/01/18 03:43:55;;;;;;;11.30;5.22;;;1.00;83.60;;;;;;5078643;28;20548;-75
2023/01/18 03:46:24;;;;;;;12.20;5.43;;;1.10;83.80;;;;;;5096458;28;20031;-75
2023/01/18 03:48:49;;;;;;;9.02;4.95;;;1.20;83.90;;;;;;5061932;28;20106;-75
2023/01/18 03:51:46;;;;;;;15.68;5.82;;;1.20;83.80;;;;;;5078648;28;20016;-75
2023/01/18 03:54:17;;;;;;;11.75;5.53;;;1.30;84.00;;;;;;5078508;28;20035;-75
2023/01/18 03:57:04;;;;;;;11.43;5.60;;;1.30;84.20;;;;;;5078460;28;20025;-75
2023/01/18 03:59:37;;;;;;;8.30;4.10;;;1.30;84.20;;;;;;5078474;28;20275;-75
2023/01/18 04:02:07;;;;;;;13.07;5.13;;;1.30;84.30;;;;;;5096110;28;20046;-75
2023/01/18 04:04:34;;;;;;;8.27;4.57;;;1.20;84.60;;;;;;5078432;28;20092;-76
2023/01/18 04:06:59;;;;;;;9.60;4.85;;;1.20;84.50;;;;;;5078292;28;20552;-75
2023/01/18 04:09:26;;;;;;;12.00;4.85;;;1.30;84.60;;;;;;5061556;28;20029;-75
2023/01/18 04:11:52;;;;;;;12.18;4.65;;;1.30;84.50;;;;;;5078070;28;20029;-76
2023/01/18 04:14:17;;;;;;;12.27;4.93;;;1.30;84.60;;;;;;5061559;28;20024;-75
2023/01/18 04:16:43;;;;;;;10.38;4.75;;;1.30;84.50;;;;;;5095821;28;20069;-75
2023/01/18 04:19:09;;;;;;;9.27;4.78;;;1.30;84.50;;;;;;5061384;28;20465;-75
2023/01/18 04:21:35;;;;;;;10.27;4.85;;;1.20;84.10;;;;;;5045070;28;20095;-75
2023/01/18 04:24:01;;;;;;;9.93;4.47;;;1.10;83.60;;;;;;5077783;28;20072;-76
2023/01/18 04:26:26;;;;;;;11.02;5.07;;;1.10;83.80;;;;;;5044771;28;20039;-75
2023/01/18 04:28:52;;;;;;;12.63;5.60;;;1.10;84.20;;;;;;5061211;28;20032;-75
2023/01/18 04:31:18;;;;;;;8.85;4.28;;;1.20;84.50;;;;;;5077874;28;20028;-75
2023/01/18 04:33:43;;;;;;;10.30;4.95;;;1.20;84.30;;;;;;5061184;28;20071;-75
2023/01/18 04:36:09;;;;;;;10.90;4.70;;;1.10;83.40;;;;;;5061245;28;20024;-75
2023/01/18 04:38:34;;;;;;;10.48;4.35;;;1.00;83.20;;;;;;5061035;28;20035;-75
2023/01/18 04:41:04;;;;;;;12.40;5.07;;;0.90;83.20;;;;;;5077697;28;20039;-75
2023/01/18 04:43:30;;;;;;;10.98;5.15;;;0.90;83.50;;;;;;5061049;28;20028;-75
2023/01/18 04:45:56;;;;;;;8.05;4.47;;;1.00;83.70;;;;;;5060938;28;20028;-75
2023/01/18 04:48:23;;;;;;;13.10;4.72;;;1.00;83.70;;;;;;5077431;28;20095;-75
2023/01/18 04:50:49;;;;;;;9.93;4.82;;;1.00;83.70;;;;;;5076673;28;20017;-75
2023/01/18 04:53:15;;;;;;;11.20;5.00;;;1.00;84.00;;;;;;5077526;28;20028;-75
2023/01/18 04:55:41;;;;;;;12.15;4.55;;;1.00;84.10;;;;;;5077572;28;20028;-75
2023/01/18 04:58:07;;;;;;;7.80;4.35;;;1.00;84.50;;;;;;5060700;28;20028;-75
2023/01/18 05:00:32;;;;;;;9.75;4.90;;;1.00;84.40;;;;;;5077211;28;20031;-75
2023/01/18 05:02:58;;;;;;;12.90;5.47;;;1.00;84.50;;;;;;5094963;28;20029;-75
2023/01/18 05:05:24;;;;;;;9.90;4.65;;;1.00;84.60;;;;;;5060667;28;20040;-75
2023/01/18 05:07:50;;;;;;;12.40;4.28;;;1.00;84.50;;;;;;5077082;28;20050;-75
2023/01/18 05:10:16;;;;;;;9.25;4.40;;;1.00;84.00;;;;;;5060540;28;20028;-75
2023/01/18 05:12:41;;;;;;;10.98;4.35;;;0.80;83.40;;;;;;5077111;28;20044;-75
2023/01/18 05:15:08;;;;;;;7.47;4.47;;;0.70;83.60;;;;;;5060333;28;20043;-75
2023/01/18 05:17:34;;;;;;;9.88;4.25;;;0.60;84.00;;;;;;5060236;28;20067;-75
2023/01/18 05:20:05;;;;;;;8.68;4.72;;;0.40;84.00;;;;;;5060218;28;20021;-75
2023/01/18 05:22:32;;;;;;;9.93;5.20;;;0.30;83.90;;;;;;5077324;28;20025;-75
2023/01/18 05:24:57;;;;;;;10.68;4.40;;;0.10;85.00;;;;;;5043601;28;20055;-75
2023/01/18 05:27:23;;;;;;;8.50;4.13;;;0.10;85.00;;;;;;5076880;28;20029;-75
2023/01/18 05:29:50;;;;;;;10.75;4.47;;;0.10;85.70;;;;;;5076666;28;20032;-74
2023/01/18 05:32:16;;;;;;;7.80;4.97;;;0.10;86.70;;;;;;5094250;28;20036;-75
2023/01/18 05:34:42;;;;;;;14.93;5.15;;;0.10;86.60;;;;;;5094369;28;20021;-75
2023/01/18 05:37:08;;;;;;;7.70;4.45;;;0.10;86.60;;;;;;5060409;28;20028;-75
2023/01/18 05:39:34;;;;;;;9.45;4.22;;;0.10;86.40;;;;;;5076504;28;20054;-75
2023/01/18 05:42:00;;;;;;;7.78;3.90;;;0.20;86.20;;;;;;5059946;28;20469;-75
2023/01/18 05:44:25;;;;;;;8.85;4.53;;;0.10;85.60;;;;;;5076461;28;20048;-75
2023/01/18 05:46:51;;;;;;;9.23;4.45;;;0.00;86.00;;;;;;5059646;28;20040;-74
2023/01/18 05:49:16;;;;;;;10.52;4.68;;;0.00;86.10;;;;;;5043167;28;20029;-75
2023/01/18 05:51:42;;;;;;;12.05;4.70;;;0.00;86.60;;;;;;5043033;28;20170;-75
2023/01/18 05:54:08;;;;;;;10.60;4.13;;;0.00;86.80;;;;;;5059680;28;20035;-75
2023/01/18 05:56:34;;;;;;;9.88;3.78;;;-0.10;87.90;;;;;;5059461;28;20025;-75
2023/01/18 05:58:59;;;;;;;5.78;3.58;;;-0.10;88.30;;;;;;5076135;28;20021;-75
2023/01/18 06:01:25;;;;;;;9.93;4.82;;;-0.10;88.80;;;;;;5042821;28;20075;-75
2023/01/18 06:03:51;;;;;;;15.95;3.90;;;-0.10;89.30;;;;;;5093895;28;20036;-75
2023/01/18 06:06:16;;;;;;;5.97;3.58;;;-0.10;89.40;;;;;;5059360;28;20035;-75
2023/01/18 06:08:42;;;;;;;13.25;4.68;;;-0.10;89.50;;;;;;5059277;28;20033;-75
2023/01/18 06:11:09;;;;;;;10.80;4.95;;;-0.10;89.50;;;;;;5059389;28;20036;-75
2023/01/18 06:13:34;;;;;;;9.85;5.05;;;-0.10;89.90;;;;;;5093622;28;20021;-75
2023/01/18 06:16:01;;;;;;;7.05;3.00;;;-0.10;89.80;;;;;;5075861;28;20049;-75
2023/01/18 06:18:30;;;;;;;11.90;5.22;;;-0.20;90.10;;;;;;5075748;28;20024;-74
2023/01/18 06:20:57;;;;;;;9.52;4.25;;;-0.20;90.10;;;;;;5075817;28;20067;-75
2023/01/18 06:23:23;;;;;;;12.63;4.07;;;-0.20;90.20;;;;;;5075771;28;20020;-75
2023/01/18 06:25:49;;;;;;;7.88;4.28;;;-0.20;90.20;;;;;;5075566;28;20120;-75
2023/01/18 06:28:15;;;;;;;11.10;4.53;;;-0.30;90.30;;;;;;5075695;28;20036;-75
2023/01/18 06:30:46;;;;;;;12.73;4.53;;;-0.20;90.30;;;;;;5075896;28;20021;-75
2023/01/18 06:33:14;;;;;;;8.47;4.10;;;-0.20;90.40;;;;;;5075533;28;20032;-75
2023/01/18 06:35:42;;;;;;;8.68;5.10;;;-0.30;90.40;;;;;;5058920;28;20024;-75
2023/01/18 06:38:08;;;;;;;8.10;4.68;;;-0.20;90.40;;;;;;5075952;28;20025;-75
2023/01/18 06:40:34;;;;;;;12.48;5.35;;;-0.30;90.40;;;;;;5075568;28;20023;-75
2023/01/18 06:42:59;;;;;;;7.55;3.33;;;-0.20;90.40;;;;;;5075582;28;20056;-75
2023/01/18 06:45:25;;;;;;;8.98;3.90;;;-0.30;90.40;;;;;;5059044;28;20088;-75
2023/01/18 06:47:51;;;;;;;13.20;5.53;;;-0.20;90.30;;;;;;5075610;28;20028;-75
2023/01/18 06:50:18;;;;;;;13.50;4.65;;;-0.30;90.30;;;;;;5058899;28;20029;-75
2023/01/18 06:52:44;;;;;;;5.60;3.20;;;-0.30;90.70;;;;;;5093105;28;20035;-75
2023/01/18 06:55:11;;;;;;;15.70;5.60;;;-0.30;90.40;;;;;;5093154;28;20021;-75
2023/01/18 06:57:37;;;;;;;8.55;4.70;;;-0.30;90.50;;;;;;5059058;28;20032;-75
2023/01/18 07:00:05;;;;;;;9.10;4.63;;;-0.40;90.50;;;;;;5058758;28;20025;-75
2023/01/18 07:02:34;;;;;;;11.82;4.85;;;-0.40;90.60;;;;;;5058881;28;20096;-75
2023/01/18 07:05:00;;;;;;;10.52;5.25;;;-0.40;90.60;;;;;;5075273;28;20021;-75
2023/01/18 07:07:27;;;;;;;11.43;5.70;;;-0.30;90.50;;;;;;5075265;28;20024;-75
2023/01/18 07:09:53;;;;;;;9.48;5.05;;;-0.30;90.60;;;;;;5092930;28;20052;-75
2023/01/18 07:12:19;;;;;;;10.55;5.82;;;-0.30;90.60;;;;;;5058787;28;20058;-75
2023/01/18 07:14:45;;;;;;;11.20;4.47;;;-0.30;90.50;;;;;;5097091;28;20095;-75
2023/01/18 07:17:11;;;;;;;13.40;5.65;;;-0.30;90.40;;;;;;5062953;28;20025;-75
2023/01/18 07:19:37;;;;;;;10.70;5.38;;;-0.30;90.30;;;;;;5062559;28;20070;-75
2023/01/18 07:22:02;;;;;;;10.52;5.97;;;-0.30;90.30;;;;;;5062513;28;20055;-75
2023/01/18 07:24:28;;;;;;;14.23;5.88;;;-0.20;90.30;;;;;;5078893;28;20057;-75
2023/01/18 07:26:54;;;;;;;14.85;6.20;;;-0.20;90.30;;;;;;5062330;28;20031;-75
2023/01/18 07:29:20;;;;;;;12.02;6.00;;;-0.20;90.20;;;;;;5079004;28;20058;-74
2023/01/18 07:31:46;;;;;;;10.43;5.15;;;-0.20;90.30;;;;;;5078975;28;20033;-75
2023/01/18 07:34:13;;;;;;;9.75;4.88;;;-0.20;90.20;;;;;;5078857;28;20057;-75
2023/01/18 07:36:40;;;;;;;15.23;6.25;;;-0.20;90.20;;;;;;5078827;28;20082;-75
2023/01/18 07:39:07;;;;;;;10.45;5.60;;;-0.20;90.00;;;;;;5046118;28;20023;-75
2023/01/18 07:41:33;;;;;;;10.68;5.85;;;-0.20;89.80;;;;;;5078783;28;20024;-74
2023/01/18 07:43:59;;;;;;;12.23;5.95;;;-0.20;89.90;;;;;;5062176;28;20017;-75
2023/01/18 07:46:25;;;;;;;8.27;5.05;;;-0.20;90.00;;;;;;5078578;28;20031;-75
2023/01/18 07:48:51;;;;;;;8.60;4.68;;;-0.30;90.00;;;;;;5062048;28;20028;-75
2023/01/18 07:51:18;;;;;;;7.90;4.78;;;-0.30;89.50;;;;;;5096176;28;20017;-74
2023/01/18 07:53:44;;;;;;;10.95;5.38;;;-0.30;89.80;;;;;;5096225;28;20397;-75
2023/01/18 07:56:12;;;;;;;13.52;5.32;;;-0.30;90.10;;;;;;5078513;28;20032;-74
2023/01/18 07:58:38;;;;;;;11.68;5.32;;;-0.30;90.10;;;;;;5078539;28;20024;-74
2023/01/18 08:01:07;;;;;;;14.38;6.95;;;-0.30;90.10;;;;;;5096117;28;20040;-75
2023/01/18 08:03:35;;;;;;;8.82;4.35;;;-0.30;90.10;;;;;;5078855;28;20405;-75
2023/01/18 08:06:01;;;;;;;9.88;5.43;;;-0.30;90.20;;;;;;5078253;28;20029;-75
2023/01/18 08:08:28;;;;;;;9.60;5.55;;;-0.40;90.40;;;;;;5078264;28;20048;-75
2023/01/18 08:10:55;;;;;;;10.68;4.72;;;-0.40;90.60;;;;;;5061761;28;20039;-75
2023/01/18 08:13:22;;;;;;;12.00;6.15;;;-0.40;90.70;;;;;;5061381;28;20409;-75
2023/01/18 08:15:48;;;;;;;9.95;5.25;;;-0.30;90.80;;;;;;5078100;28;20103;-75
2023/01/18 08:18:13;;;;;;;13.25;5.38;;;-0.30;90.80;;;;;;5078141;28;20051;-74
2023/01/18 08:20:45;;;;;;;19.90;5.40;;;-0.30;90.50;;;;;;5078060;28;20028;-74
2023/01/18 08:23:11;;;;;;;9.43;4.40;;;-0.30;90.80;;;;;;5078172;28;20040;-74
2023/01/18 08:25:37;;;;;;;12.60;6.25;;;-0.20;90.70;;;;;;5039293;28;20144;-75
2023/01/18 08:28:04;;;;;;;11.43;5.70;;;-0.30;90.90;;;;;;5055568;28;20037;-74
2023/01/18 08:30:39;;;;;;;10.65;5.55;;;-0.20;90.90;;;;;;5054537;28;20057;-75
2023/01/18 08:33:06;;;;;;;9.13;4.72;;;-0.20;90.80;;;;;;5055434;28;20085;-75
2023/01/18 08:35:38;;;;;;;6.85;4.43;;;-0.10;90.90;;;;;;5054446;28;20411;-75
2023/01/18 08:38:04;;;;;;;8.70;4.38;;;0.00;91.20;;;;;;5055406;28;20028;-75
2023/01/18 08:40:30;;;;;;;10.10;4.95;;;0.10;90.70;;;;;;5037821;28;20022;-75
2023/01/18 08:42:58;;;;;;;9.70;4.47;;;0.20;90.50;;;;;;5054309;28;20055;-75
2023/01/18 08:45:24;;;;;;;12.93;5.80;;;0.20;90.40;;;;;;5054332;28;20030;-75
2023/01/18 08:48:02;;;;;;;10.57;5.03;;;0.30;90.30;;;;;;5055204;28;20029;-75
2023/01/18 08:50:29;;;;;;;11.30;5.22;;;0.50;90.20;;;;;;5054072;28;20093;-75
2023/01/18 08:52:55;;;;;;;10.10;5.00;;;0.60;90.00;;;;;;5054140;28;20097;-74
2023/01/18 08:55:22;;;;;;;11.40;6.28;;;0.70;89.60;;;;;;5054139;28;20075;-75
2023/01/18 08:57:48;;;;;;;10.18;4.93;;;1.10;89.40;;;;;;5053988;28;20028;-75
2023/01/18 09:00:17;;;;;;;12.13;5.82;;;1.20;88.20;;;;;;5054113;28;20455;-75
2023/01/18 09:02:42;;;;;;;10.98;6.00;;;1.40;87.90;;;;;;5037433;28;20029;-75
2023/01/18 09:05:08;;;;;;;15.13;6.68;;;1.50;87.20;;;;;;5053823;28;20033;-75
2023/01/18 09:07:34;;;;;;;10.18;6.10;;;1.80;86.50;;;;;;5037290;28;20029;-75
2023/01/18 09:09:59;;;;;;;15.85;6.72;;;1.90;85.60;;;;;;5037146;28;20037;-75
2023/01/18 09:12:25;;;;;;;13.23;6.35;;;2.10;84.80;;;;;;5053670;28;20034;-75
2023/01/18 09:14:51;;;;;;;9.98;5.72;;;2.30;84.30;;;;;;5037174;28;20083;-75
2023/01/18 09:17:20;;;;;;;13.15;5.88;;;2.50;83.50;;;;;;5053690;28;20036;-75
2023/01/18 09:19:46;;;;;;;13.15;6.57;;;2.70;82.70;;;;;;5053657;28;20097;-75
2023/01/18 09:22:12;;;;;;;13.70;6.72;;;3.00;82.10;;;;;;5037120;28;20038;-75
2023/01/18 09:24:38;;;;;;;15.35;6.90;;;3.30;81.10;;;;;;5072749;28;20076;-75
2023/01/18 09:27:04;;;;;;;12.80;6.88;;;3.60;80.50;;;;;;5043683;28;20058;-75
2023/01/18 09:29:30;;;;;;;14.70;7.13;;;4.00;79.40;;;;;;5043789;28;20034;-75
2023/01/18 09:31:56;;;;;;;17.13;7.95;;;4.20;78.50;;;;;;5076610;28;20020;-75
2023/01/18 09:34:22;;;;;;;13.18;6.63;;;4.50;77.60;;;;;;5094429;28;20375;-75
2023/01/18 09:36:50;;;;;;;15.50;7.05;;;4.70;76.50;;;;;;5076178;28;20017;-75
2023/01/18 09:39:16;;;;;;;11.45;6.70;;;4.80;75.70;;;;;;5076875;28;20029;-75
2023/01/18 09:41:45;;;;;;;12.60;7.05;;;4.70;74.80;;;;;;5094177;28;20039;-75
2023/01/18 09:44:39;;;;;;;15.32;6.38;;;4.80;75.20;;;;;;5076587;28;20024;-76
2023/01/18 09:47:16;;;;;;;15.05;7.03;;;4.90;75.10;;;;;;5072820;28;20036;-76
2023/01/18 09:49:53;;;;;;;13.77;7.95;;;5.00;74.40;;;;;;5076430;28;20036;-76
2023/01/18 09:52:42;;;;;;;14.50;7.03;;;5.10;74.80;;;;;;5093902;28;20028;-76
2023/01/18 09:55:17;;;;;;;11.95;6.30;;;5.30;74.40;;;;;;5076285;28;20020;-76
2023/01/18 09:58:17;;;;;;;12.82;7.35;;;5.40;72.60;;;;;;5093947;28;20024;-76
2023/01/18 10:00:46;;;;;;;11.10;6.28;;;5.50;73.10;;;;;;5076212;28;20036;-76
2023/01/18 10:03:14;;;;;;;11.85;6.13;;;5.50;72.70;;;;;;5093788;28;20021;-76
2023/01/18 10:05:50;;;;;;;14.35;7.00;;;5.50;73.00;;;;;;5093767;28;20051;-76
2023/01/18 10:08:24;;;;;;;15.85;6.93;;;5.50;73.20;;;;;;5093708;28;20016;-75
2023/01/18 10:11:01;;;;;;;11.35;6.57;;;5.40;73.20;;;;;;5093717;28;20031;-76
2023/01/18 10:13:49;;;;;;;13.23;7.03;;;5.00;73.20;;;;;;5075921;28;20020;-76
2023/01/18 10:16:15;;;;;;;11.70;6.30;;;5.10;75.30;;;;;;5093586;28;20027;-76
2023/01/18 10:18:50;;;;;;;12.50;6.53;;;4.90;75.40;;;;;;5059290;28;20048;-75
2023/01/18 10:21:22;;;;;;;12.48;5.72;;;4.80;75.60;;;;;;5093599;28;20492;-76
2023/01/18 10:23:54;;;;;;;12.18;5.35;;;4.70;76.30;;;;;;5075702;28;20020;-76
2023/01/18 10:26:31;;;;;;;7.60;4.13;;;4.70;77.10;;;;;;5075878;28;20055;-76
2023/01/18 10:29:11;;;;;;;7.43;3.85;;;4.50;77.10;;;;;;5093536;28;20032;-76
2023/01/18 10:31:48;;;;;;;13.30;6.90;;;4.40;77.50;;;;;;5093439;28;20024;-75
2023/01/18 10:34:27;;;;;;;11.38;5.30;;;4.40;79.00;;;;;;5093367;28;20028;-75
2023/01/18 10:37:16;;;;;;;13.32;6.18;;;4.30;78.50;;;;;;5093397;28;20023;-76
2023/01/18 10:39:59;;;;;;;10.45;5.18;;;4.30;79.80;;;;;;5075576;28;20035;-75
2023/01/18 10:42:46;;;;;;;12.02;6.47;;;4.40;79.90;;;;;;5075591;28;20029;-75
2023/01/18 10:45:36;;;;;;;7.43;3.40;;;4.30;79.10;;;;;;5075384;28;20036;-75
2023/01/18 10:48:17;;;;;;;10.75;5.50;;;4.10;79.40;;;;;;5074141;28;20033;-75
2023/01/18 10:50:48;;;;;;;12.25;6.25;;;4.10;81.00;;;;;;5093417;28;20112;-75
2023/01/18 10:53:20;;;;;;;9.40;4.57;;;4.10;81.50;;;;;;5075366;28;20020;-75
2023/01/18 10:56:09;;;;;;;12.68;5.82;;;4.10;81.10;;;;;;5093158;28;20040;-75
2023/01/18 10:58:56;;;;;;;11.45;5.45;;;4.10;81.40;;;;;;5093320;28;20031;-75
2023/01/18 11:01:34;;;;;;;10.10;5.60;;;4.10;82.10;;;;;;5075450;28;20044;-75
2023/01/18 11:04:22;;;;;;;12.80;5.80;;;4.10;81.60;;;;;;5093123;28;20070;-75
2023/01/18 11:06:50;;;;;;;12.70;6.07;;;4.20;82.30;;;;;;5058128;28;20481;-75
2023/01/18 11:09:53;;;;;;;9.88;5.80;;;4.10;81.30;;;;;;5092888;28;20024;-75
2023/01/18 11:12:33;;;;;;;;;;;4.10;82.20;;;;;;5093351;28;20017;-75
2023/01/18 11:15:14;;;;;;;9.88;5.07;;;4.20;82.40;;;;;;5075373;28;19911;-75
2023/01/18 11:17:43;;;;;;;10.57;4.97;;;4.20;82.50;;;;;;5092933;28;20074;-75
2023/01/18 11:20:18;;;;;;;9.50;4.40;;;4.20;82.30;;;;;;5075190;28;20401;-76
2023/01/18 11:22:57;;;;;;;6.85;4.47;;;4.20;82.40;;;;;;5092922;28;20067;-75
2023/01/18 11:25:25;;;;;;;15.23;6.38;;;4.20;82.50;;;;;;5075016;28;20539;-76
2023/01/18 11:27:51;;;;;;;8.35;4.32;;;4.30;83.00;;;;;;5092857;28;20055;-75
2023/01/18 11:30:23;;;;;;;14.75;6.03;;;4.30;81.80;;;;;;5092879;28;20025;-76
2023/01/18 11:32:53;;;;;;;10.50;6.25;;;4.40;82.20;;;;;;5092921;28;20044;-76
2023/01/18 11:35:35;;;;;;;10.05;5.40;;;4.50;82.50;;;;;;5075111;28;20024;-76
2023/01/18 11:38:09;;;;;;;11.43;6.23;;;4.60;81.80;;;;;;5093015;28;20049;-76
2023/01/18 11:40:35;;;;;;;6.18;3.60;;;4.70;81.10;;;;;;5059019;28;20025;-76
2023/01/18 11:43:18;;;;;;;9.23;3.97;;;4.70;80.90;;;;;;5058419;28;20036;-76
2023/01/18 11:45:58;;;;;;;11.40;5.22;;;4.70;81.20;;;;;;5074935;28;20021;-76
2023/01/18 11:49:08;;;;;;;10.65;5.32;;;4.80;81.40;;;;;;5074936;28;20025;-75
2023/01/18 11:51:43;;;;;;;12.93;5.25;;;4.80;81.50;;;;;;5063763;28;20055;-75
2023/01/18 11:54:15;;;;;;;11.88;4.82;;;5.00;81.70;;;;;;5092641;28;20025;-75
2023/01/18 11:56:54;;;;;;;6.22;3.47;;;5.00;80.30;;;;;;5092606;28;20020;-75
2023/01/18 11:59:23;;;;;;;8.60;3.55;;;5.10;80.60;;;;;;5094441;28;20025;-75
2023/01/18 12:02:09;;;;;;;6.05;3.50;;;5.10;79.80;;;;;;5096156;28;20088;-75
2023/01/18 12:05:11;;;;;;;9.52;5.05;;;5.10;79.60;;;;;;5078366;28;20519;-75
2023/01/18 12:08:01;;;;;;;6.43;3.58;;;5.20;79.90;;;;;;4978947;28;20046;-75
2023/01/18 12:10:39;;;;;;;10.60;5.07;;;5.20;79.30;;;;;;5074452;28;20075;-75
2023/01/18 12:13:23;;;;;;;10.07;5.63;;;5.40;80.00;;;;;;5078113;28;20087;-75
2023/01/18 12:15:57;;;;;;;12.50;5.32;;;5.50;80.00;;;;;;5078131;28;20035;-75
2023/01/18 12:18:32;;;;;;;12.75;5.80;;;5.60;79.70;;;;;;5078179;28;20032;-75
2023/01/18 12:21:34;;;;;;;10.55;5.47;;;5.60;78.80;;;;;;5095876;28;20029;-75
2023/01/18 12:24:28;;;;;;;7.83;4.83;;;5.70;78.80;;;;;;5077314;28;20040;-75
2023/01/18 12:27:07;;;;;;;6.70;4.18;;;5.80;77.40;;;;;;5077805;28;20033;-75
2023/01/18 12:29:45;;;;;;;9.60;5.00;;;5.80;77.50;;;;;;5095677;28;20025;-75
2023/01/18 12:32:19;;;;;;;8.35;4.68;;;5.80;79.10;;;;;;5077862;28;20032;-74
2023/01/18 12:35:41;;;;;;;10.00;4.40;;;6.00;77.80;;;;;;5077778;28;20059;-75
2023/01/18 12:38:24;;;;;;;8.45;4.00;;;6.20;77.80;;;;;;4978334;28;20026;-75
2023/01/18 12:41:01;;;;;;;7.90;4.50;;;6.30;76.70;;;;;;5087106;28;20062;-75
2023/01/18 12:44:15;;;;;;;11.20;5.15;;;6.60;77.00;;;;;;5095475;28;20027;-74
2023/01/18 12:46:59;;;;;;;7.50;4.20;;;7.10;75.30;;;;;;5040122;28;20175;-74
2023/01/18 12:49:28;;;;;;;6.25;4.15;;;7.50;74.30;;;;;;5095424;28;20054;-75
2023/01/18 12:51:58;;;;;;;8.32;3.70;;;7.60;72.30;;;;;;5077384;28;20470;-74
2023/01/18 12:54:29;;;;;;;7.53;4.00;;;7.60;70.40;;;;;;5095233;28;20047;-74
2023/01/18 12:56:57;;;;;;;14.68;4.60;;;7.70;70.50;;;;;;5095177;28;20027;-75
2023/01/18 12:59:27;;;;;;;8.45;4.95;;;7.80;70.40;;;;;;5095039;28;20020;-75
2023/01/18 13:02:17;;;;;;;6.55;4.32;;;7.90;69.90;;;;;;5095193;28;20076;-74
2023/01/18 13:04:51;;;;;;;7.60;4.20;;;8.20;69.30;;;;;;5060098;28;20043;-75
2023/01/18 13:07:20;;;;;;;7.10;4.40;;;8.50;69.50;;;;;;5094991;28;20024;-74
2023/01/18 13:09:49;;;;;;;12.43;5.97;;;8.70;68.30;;;;;;5076559;28;20028;-74
2023/01/18 13:12:15;;;;;;;10.48;6.60;;;8.80;68.10;;;;;;5060039;28;20020;-75
2023/01/18 13:15:10;;;;;;;12.73;8.52;;;8.80;66.90;;;;;;5060566;28;20017;-74
2023/01/18 13:17:38;;;;;;;9.10;4.78;;;9.00;67.60;;;;;;5055490;28;20468;-74
2023/01/18 13:20:55;;;;;;;7.28;3.80;;;8.80;67.20;;;;;;5094784;28;20488;-74
2023/01/18 13:23:30;;;;;;;6.28;3.28;;;8.60;66.00;;;;;;5076725;28;20032;-75
2023/01/18 13:26:01;;;;;;;8.65;3.88;;;8.50;66.50;;;;;;5076662;28;20146;-74
2023/01/18 13:28:27;;;;;;;6.80;3.65;;;8.40;66.10;;;;;;5094439;28;20024;-74
2023/01/18 13:31:03;;;;;;;6.03;4.00;;;8.10;65.50;;;;;;5043772;28;20031;-74
2023/01/18 13:33:39;;;;;;;6.22;3.33;;;8.00;67.20;;;;;;5094500;28;20036;-74
2023/01/18 13:36:08;;;;;;;12.00;5.78;;;7.90;66.30;;;;;;5094468;28;20025;-74
2023/01/18 13:38:38;;;;;;;9.10;3.80;;;7.90;67.30;;;;;;5094376;28;20031;-74
2023/01/18 13:41:10;;;;;;;7.43;4.32;;;8.00;67.10;;;;;;5076527;28;20024;-74
2023/01/18 13:43:35;;;;;;;8.43;4.30;;;7.90;67.70;;;;;;5094307;28;20025;-74
2023/01/18 13:46:07;;;;;;;13.15;6.63;;;8.30;67.80;;;;;;5076464;28;20039;-74
2023/01/18 13:48:54;;;;;;;7.93;3.75;;;8.50;67.60;;;;;;5094111;28;20048;-74